Time;durP1;ratioP1;P1;durP2;ratioP2;P2;SDS_P1;SDS_P2;PMS_P1;PMS_P2;Temp;Humidity;BMP_temperature;BMP_pressure;BME280_temperature;BME280_humidity;BME280_pressure;Samples;Min_cycle;Max_cycle;Signal;HPM_P1;HPM_P2
2022/12/22 03:26:21;;;;;;;;;;;0.30;79.60;;;;;;5044428;28;87290;-39
2022/12/22 03:28:46;;;;;;;;;;;0.30;79.60;;;;;;5044562;28;87099;-39
2022/12/22 03:31:12;;;;;;;;;;;0.20;79.70;;;;;;5044805;27;87673;-39
2022/12/22 03:33:38;;;;;;;;;;;0.30;79.70;;;;;;5044274;28;87984;-39
2022/12/22 03:36:04;;;;;;;;;;;0.30;79.80;;;;;;5044788;28;87315;-39
2022/12/22 03:38:30;;;;;;;;;;;0.20;79.80;;;;;;5044902;28;87664;-39
2022/12/22 03:40:55;;;;;;;;;;;0.20;79.80;;;;;;5046723;28;88009;-39
2022/12/22 03:51:34;;;;;;;;;;;0.20;79.60;;;;;;5044693;28;87105;-39
2022/12/22 03:53:59;;;;;;;;;;;0.20;79.60;;;;;;5043547;28;88201;-39
2022/12/22 03:56:25;;;;;;;;;;;0.20;79.70;;;;;;5044310;28;87258;-39
2022/12/22 03:58:50;;;;;;;;;;;0.10;79.70;;;;;;5044106;28;86941;-39
2022/12/22 04:01:16;;;;;;;;;;;0.20;79.60;;;;;;5043778;28;88027;-39
2022/12/22 04:03:41;;;;;;;;;;;0.20;79.60;;;;;;5047478;28;86391;-39
2022/12/22 04:06:07;;;;;;;;;;;0.10;79.60;;;;;;5043914;28;88190;-39
2022/12/22 04:08:32;;;;;;;;;;;0.10;79.70;;;;;;5044020;28;87082;-39
2022/12/22 04:13:42;;;;;;;;;;;0.10;79.60;;;;;;5043726;28;87248;-39
2022/12/22 04:16:07;;;;;;;;;;;0.10;79.70;;;;;;5043756;28;87101;-39
2022/12/22 04:18:33;;;;;;;;;;;0.10;79.70;;;;;;5043808;28;87226;-39
2022/12/22 04:20:59;;;;;;;;;;;0.10;79.60;;;;;;5043418;28;88295;-39
2022/12/22 04:23:24;;;;;;;;;;;0.10;79.70;;;;;;5043673;28;87216;-39
2022/12/22 04:25:50;;;;;;;;;;;0.10;79.60;;;;;;5045937;28;88589;-39
2022/12/22 04:28:15;;;;;;;;;;;0.10;79.60;;;;;;5044299;28;86432;-39
2022/12/22 04:30:40;;;;;;;;;;;0.10;79.60;;;;;;5043831;28;87051;-39
2022/12/22 04:33:06;;;;;;;;;;;0.10;79.60;;;;;;5043295;28;88222;-39
2022/12/22 04:35:31;;;;;;;;;;;0.10;79.70;;;;;;5042929;28;88656;-39
2022/12/22 04:37:57;;;;;;;;;;;0.00;79.60;;;;;;5043415;28;88366;-39
2022/12/22 04:40:22;;;;;;;;;;;0.00;79.70;;;;;;5043154;28;88158;-39
2022/12/22 04:42:48;;;;;;;;;;;0.00;79.60;;;;;;5042623;28;86864;-39
2022/12/22 04:45:13;;;;;;;;;;;0.00;79.70;;;;;;5043302;28;87214;-39
2022/12/22 04:47:39;;;;;;;;;;;0.00;79.70;;;;;;5046040;28;88197;-39
2022/12/22 04:50:05;;;;;;;;;;;0.00;79.60;;;;;;5043334;28;87092;-39
2022/12/22 04:52:30;;;;;;;;;;;0.00;79.60;;;;;;5043207;28;87303;-39
2022/12/22 04:54:56;;;;;;;;;;;0.00;79.70;;;;;;5043345;28;87195;-39
2022/12/22 04:57:21;;;;;;;;;;;0.00;79.60;;;;;;5043156;28;87426;-39
2022/12/22 04:59:47;;;;;;;;;;;0.00;79.70;;;;;;5042109;27;90224;-39
2022/12/22 05:02:12;;;;;;;;;;;0.00;79.70;;;;;;5043153;28;87099;-39
2022/12/22 05:04:38;;;;;;;;;;;-0.10;79.70;;;;;;5043238;28;87290;-39
2022/12/22 05:07:03;;;;;;;;;;;0.00;79.70;;;;;;5042458;28;87871;-39
2022/12/22 05:09:29;;;;;;;;;;;-0.10;79.70;;;;;;5046022;28;87157;-39
2022/12/22 05:11:54;;;;;;;;;;;-0.10;79.70;;;;;;5042525;28;89282;-39
2022/12/22 05:14:20;;;;;;;;;;;-0.10;79.80;;;;;;5042974;28;87156;-39
2022/12/22 05:16:45;;;;;;;;;;;-0.10;79.70;;;;;;5043203;28;87407;-39
2022/12/22 05:19:11;;;;;;;;;;;-0.10;79.70;;;;;;5042744;28;88059;-39
2022/12/22 05:21:36;;;;;;;;;;;-0.10;79.70;;;;;;5042970;28;87152;-39
2022/12/22 05:24:02;;;;;;;;;;;-0.10;79.70;;;;;;5041978;28;87941;-39
2022/12/22 05:26:27;;;;;;;;;;;-0.10;79.70;;;;;;5042434;28;87256;-39
2022/12/22 05:28:53;;;;;;;;;;;-0.10;79.70;;;;;;5045750;28;87183;-39
2022/12/22 05:31:20;;;;;;;;;;;-0.10;79.80;;;;;;5042522;28;88138;-39
2022/12/22 05:33:46;;;;;;;;;;;-0.20;79.70;;;;;;5042754;28;87281;-39
2022/12/22 05:36:12;;;;;;;;;;;-0.10;79.80;;;;;;5042977;28;87525;-39
2022/12/22 05:38:37;;;;;;;;;;;-0.10;79.70;;;;;;5042343;28;88027;-39
2022/12/22 05:41:03;;;;;;;;;;;-0.10;79.70;;;;;;5042872;28;86428;-39
2022/12/22 05:43:28;;;;;;;;;;;-0.10;79.70;;;;;;5042701;28;86978;-39
2022/12/22 05:45:54;;;;;;;;;;;-0.20;79.70;;;;;;5042342;28;88000;-39
2022/12/22 05:48:19;;;;;;;;;;;-0.20;79.80;;;;;;5042080;28;88072;-39
2022/12/22 05:50:45;;;;;;;;;;;-0.20;79.70;;;;;;5045194;28;88500;-39
2022/12/22 05:53:10;;;;;;;;;;;-0.20;79.80;;;;;;5042655;28;87168;-39
2022/12/22 05:55:36;;;;;;;;;;;-0.20;79.80;;;;;;5044909;27;87108;-39
2022/12/22 05:58:02;;;;;;;;;;;-0.20;79.70;;;;;;5045737;28;87934;-39
2022/12/22 06:00:28;;;;;;;;;;;-0.20;79.70;;;;;;5046237;27;87139;-39
2022/12/22 06:02:54;;;;;;;;;;;-0.20;79.70;;;;;;5045816;28;86989;-39
2022/12/22 06:05:20;;;;;;;;;;;-0.20;79.70;;;;;;5045957;28;86988;-39
2022/12/22 06:07:45;;;;;;;;;;;-0.20;79.60;;;;;;5045711;28;87237;-39
2022/12/22 06:10:11;;;;;;;;;;;-0.20;79.60;;;;;;5046100;28;87479;-39
2022/12/22 06:12:36;;;;;;;;;;;-0.20;79.60;;;;;;5047743;28;88869;-39
2022/12/22 06:15:02;;;;;;;;;;;-0.30;79.70;;;;;;5046037;28;87974;-39
2022/12/22 06:17:28;;;;;;;;;;;-0.30;79.60;;;;;;5045036;28;89859;-39
2022/12/22 06:19:53;;;;;;;;;;;-0.30;79.60;;;;;;5045822;28;87016;-39
2022/12/22 06:22:19;;;;;;;;;;;-0.30;79.70;;;;;;5045231;28;87220;-39
2022/12/22 06:24:44;;;;;;;;;;;-0.30;79.70;;;;;;5045552;28;87933;-39
2022/12/22 06:27:11;;;;;;;;;;;-0.30;79.70;;;;;;5045581;28;87110;-39
2022/12/22 06:29:36;;;;;;;;;;;-0.30;79.60;;;;;;5045809;27;88744;-38
2022/12/22 06:32:02;;;;;;;;;;;-0.30;79.70;;;;;;5045270;28;87134;-38
2022/12/22 06:34:28;;;;;;;;;;;-0.30;79.70;;;;;;5048642;28;86915;-38
2022/12/22 06:36:53;;;;;;;;;;;-0.30;79.60;;;;;;5044454;28;89283;-38
2022/12/22 06:39:19;;;;;;;;;;;-0.30;79.70;;;;;;5045139;28;87200;-38
2022/12/22 06:44:29;;;;;;;;;;;-0.30;80.20;;;;;;5045289;28;86989;-39
2022/12/22 06:46:54;;;;;;;;;;;-0.30;79.50;;;;;;5045171;28;87065;-39
2022/12/22 06:49:20;;;;;;;;;;;-0.30;79.60;;;;;;5045339;28;87412;-39
2022/12/22 06:51:45;;;;;;;;;;;-0.30;79.60;;;;;;5044926;28;88080;-39
2022/12/22 06:54:11;;;;;;;;;;;-0.40;79.60;;;;;;5045768;28;86394;-40
2022/12/22 06:56:36;;;;;;;;;;;-0.30;79.60;;;;;;5048001;28;86955;-39
2022/12/22 06:59:02;;;;;;;;;;;-0.30;79.60;;;;;;5045304;28;87189;-39
2022/12/22 07:01:28;;;;;;;;;;;-0.30;79.60;;;;;;5044508;28;87810;-38
2022/12/22 07:03:54;;;;;;;;;;;-0.30;79.60;;;;;;5045050;28;88179;-38
2022/12/22 07:06:19;;;;;;;;;;;-0.30;79.60;;;;;;5044354;28;87167;-38
2022/12/22 07:08:45;;;;;;;;;;;-0.40;79.50;;;;;;5045225;28;87404;-38
2022/12/22 07:11:11;;;;;;;;;;;-0.30;79.60;;;;;;5044572;27;88024;-38
2022/12/22 07:13:37;;;;;;;;;;;-0.40;79.50;;;;;;5044665;28;87142;-38
2022/12/22 07:16:03;;;;;;;;;;;-0.40;79.60;;;;;;5044774;28;87472;-38
2022/12/22 07:18:30;;;;;;;;;;;-0.30;79.60;;;;;;5047759;28;87484;-38
2022/12/22 07:20:56;;;;;;;;;;;-0.40;79.60;;;;;;5044435;28;87961;-38
2022/12/22 07:23:21;;;;;;;;;;;-0.40;79.50;;;;;;5044476;28;87044;-39
2022/12/22 07:25:47;;;;;;;;;;;-0.30;79.50;;;;;;5044073;28;88094;-38
2022/12/22 07:28:12;;;;;;;;;;;-0.40;79.50;;;;;;5044665;28;88373;-38
2022/12/22 07:30:38;;;;;;;;;;;-0.40;79.50;;;;;;5044149;28;88558;-38
2022/12/22 07:33:03;;;;;;;;;;;-0.40;79.70;;;;;;5044583;28;87188;-38
2022/12/22 07:35:29;;;;;;;;;;;-0.40;79.60;;;;;;5044531;28;88431;-39
2022/12/22 07:37:54;;;;;;;;;;;-0.40;79.60;;;;;;5047113;28;88124;-38
2022/12/22 07:40:20;;;;;;;;;;;-0.40;79.70;;;;;;5044781;28;87631;-38
2022/12/22 07:42:45;;;;;;;;;;;-0.40;79.70;;;;;;5044304;28;87712;-38
2022/12/22 07:45:15;;;;;;;;;;;-0.40;79.60;;;;;;5044134;28;87140;-38
2022/12/22 07:47:41;;;;;;;;;;;-0.40;79.80;;;;;;5044244;28;87149;-38
2022/12/22 07:50:26;;;;;;;;;;;-0.40;79.80;;;;;;5043247;28;88563;-39
2022/12/22 07:52:55;;;;;;;;;;;-0.40;79.80;;;;;;5044122;28;86934;-38
2022/12/22 07:55:21;;;;;;;;;;;-0.40;79.70;;;;;;5044341;28;87324;-38
2022/12/22 07:57:47;;;;;;;;;;;-0.40;79.80;;;;;;5043687;28;89245;-39
2022/12/22 08:00:13;;;;;;;;;;;-0.40;79.70;;;;;;5047269;28;87092;-39
2022/12/22 08:02:39;;;;;;;;;;;-0.40;79.80;;;;;;5043252;28;87054;-38
2022/12/22 08:05:05;;;;;;;;;;;-0.40;79.80;;;;;;5044152;28;87131;-38
2022/12/22 08:07:31;;;;;;;;;;;-0.40;79.70;;;;;;5044068;28;88283;-38
2022/12/22 08:09:57;;;;;;;;;;;-0.40;79.70;;;;;;5043354;28;89104;-38
2022/12/22 08:12:23;;;;;;;;;;;-0.40;79.80;;;;;;5044113;28;87072;-38
2022/12/22 08:14:48;;;;;;;;;;;-0.40;79.80;;;;;;5043404;28;87651;-38
2022/12/22 08:17:14;;;;;;;;;;;-0.40;79.70;;;;;;5042250;27;88163;-38
2022/12/22 08:19:39;;;;;;;;;;;-0.40;79.70;;;;;;5044010;28;87107;-39
2022/12/22 08:22:05;;;;;;;;;;;-0.40;79.80;;;;;;5046169;28;87518;-38
2022/12/22 08:24:31;;;;;;;;;;;-0.40;79.90;;;;;;5043753;28;87027;-38
2022/12/22 08:27:00;;;;;;;;;;;-0.40;79.80;;;;;;5043808;28;87040;-38
2022/12/22 08:29:32;;;;;;;;;;;-0.40;80.40;;;;;;5042983;28;89362;-38
2022/12/22 08:31:58;;;;;;;;;;;-0.40;79.80;;;;;;5043885;27;86362;-38
2022/12/22 08:34:24;;;;;;;;;;;-0.40;79.80;;;;;;5043671;28;86986;-39
2022/12/22 08:36:51;;;;;;;;;;;-0.40;79.90;;;;;;5042934;28;89577;-39
2022/12/22 08:39:17;;;;;;;;;;;-0.40;79.80;;;;;;5042947;28;88096;-39
2022/12/22 08:41:48;;;;;;;;;;;-0.40;79.80;;;;;;5042846;28;88273;-38
2022/12/22 08:44:14;;;;;;;;;;;-0.40;79.80;;;;;;5046259;28;87949;-38
2022/12/22 08:46:40;;;;;;;;;;;-0.40;80.10;;;;;;5043114;28;87344;-38
2022/12/22 08:49:05;;;;;;;;;;;-0.40;80.10;;;;;;5042971;28;88036;-38
2022/12/22 08:51:31;;;;;;;;;;;-0.40;80.00;;;;;;5043298;28;87152;-38
2022/12/22 08:53:57;;;;;;;;;;;-0.40;80.00;;;;;;5043021;28;89027;-38
2022/12/22 08:56:22;;;;;;;;;;;-0.40;80.10;;;;;;5043614;28;87338;-38
2022/12/22 08:58:48;;;;;;;;;;;-0.40;80.00;;;;;;5043231;28;87168;-38
2022/12/22 09:01:20;;;;;;;;;;;-0.40;80.00;;;;;;5043123;28;87001;-38
2022/12/22 09:03:47;;;;;;;;;;;-0.40;80.10;;;;;;5042080;28;88870;-38
2022/12/22 09:06:12;;;;;;;;;;;-0.40;80.10;;;;;;5046029;28;87112;-38
2022/12/22 09:08:37;;;;;;;;;;;-0.40;80.20;;;;;;5042902;28;88319;-38
2022/12/22 09:11:03;;;;;;;;;;;-0.40;80.30;;;;;;5042969;28;87207;-39
2022/12/22 09:13:29;;;;;;;;;;;-0.40;80.30;;;;;;5043145;28;87403;-39
2022/12/22 09:15:54;;;;;;;;;;;-0.40;80.40;;;;;;5042275;28;88061;-39
2022/12/22 09:18:20;;;;;;;;;;;-0.40;80.90;;;;;;5043102;28;87070;-39
2022/12/22 09:20:45;;;;;;;;;;;-0.40;80.30;;;;;;5043356;28;88089;-39
2022/12/22 09:23:11;;;;;;;;;;;-0.40;80.30;;;;;;5042463;28;88024;-39
2022/12/22 09:25:36;;;;;;;;;;;-0.40;80.40;;;;;;5042773;28;87275;-39
2022/12/22 09:28:05;;;;;;;;;;;-0.40;80.40;;;;;;5044784;28;88433;-39
2022/12/22 09:30:30;;;;;;;;;;;-0.40;80.50;;;;;;5042495;28;87120;-39
2022/12/22 09:32:56;;;;;;;;;;;-0.40;80.50;;;;;;5042787;28;87725;-39
2022/12/22 09:35:22;;;;;;;;;;;-0.40;80.50;;;;;;5042514;28;88210;-39
2022/12/22 09:37:47;;;;;;;;;;;-0.40;80.50;;;;;;5042649;28;87144;-39
2022/12/22 09:40:13;;;;;;;;;;;-0.40;80.50;;;;;;5042723;28;87269;-39
2022/12/22 09:42:38;;;;;;;;;;;-0.40;80.60;;;;;;5041749;28;88057;-38
2022/12/22 09:45:04;;;;;;;;;;;-0.40;80.50;;;;;;5043161;27;86590;-38
2022/12/22 09:47:29;;;;;;;;;;;-0.40;80.70;;;;;;5045067;28;87046;-38
2022/12/22 09:49:56;;;;;;;;;;;-0.40;80.80;;;;;;5042615;28;87124;-38
2022/12/22 09:52:23;;;;;;;;;;;-0.40;80.90;;;;;;5042033;28;87949;-38
2022/12/22 09:54:49;;;;;;;;;;;-0.40;80.80;;;;;;5042220;28;87381;-38
2022/12/22 09:57:14;;;;;;;;;;;-0.40;80.70;;;;;;5042219;28;87495;-38
2022/12/22 09:59:40;;;;;;;;;;;-0.40;80.70;;;;;;5042314;28;87408;-38
2022/12/22 10:02:12;;;;;;;;;;;-0.40;80.80;;;;;;5042062;28;88131;-39
2022/12/22 10:04:37;;;;;;;;;;;-0.40;80.80;;;;;;5042421;28;87217;-39
2022/12/22 10:07:21;;;;;;;;;;;-0.40;80.90;;;;;;5042415;28;87279;-38
2022/12/22 10:09:46;;;;;;;;;;;-0.40;80.80;;;;;;5045654;28;86282;-38
2022/12/22 10:12:14;;;;;;;;;;;-0.40;80.80;;;;;;5042293;28;87043;-38
2022/12/22 10:14:43;;;;;;;;;;;-0.40;80.80;;;;;;5041670;28;88112;-38
2022/12/22 10:17:18;;;;;;;;;;;-0.40;80.80;;;;;;5041336;28;88300;-38
2022/12/22 10:19:44;;;;;;;;;;;-0.40;80.70;;;;;;5042174;28;88410;-38
2022/12/22 10:22:30;;;;;;;;;;;-0.30;80.90;;;;;;5041885;28;88028;-38
2022/12/22 10:24:56;;;;;;;;;;;-0.30;80.20;;;;;;5040928;28;87183;-38
2022/12/22 10:27:24;;;;;;;;;;;-0.20;80.40;;;;;;5041864;28;88912;-39
2022/12/22 10:29:50;;;;;;;;;;;-0.20;80.30;;;;;;5041815;28;88121;-39
2022/12/22 10:32:17;;;;;;;;;;;-0.10;80.20;;;;;;5045009;28;87097;-39
2022/12/22 10:34:57;;;;;;;;;;;0.00;79.90;;;;;;5042263;28;87256;-38
2022/12/22 10:37:29;;;;;;;;;;;0.10;79.60;;;;;;5041689;28;86990;-38
2022/12/22 10:39:54;;;;;;;;;;;0.00;79.90;;;;;;5042105;27;87504;-39
2022/12/22 10:42:19;;;;;;;;;;;0.00;79.70;;;;;;5043746;28;89006;-39
2022/12/22 10:44:46;;;;;;;;;;;0.00;80.00;;;;;;5045335;28;87184;-38
2022/12/22 10:47:19;;;;;;;;;;;0.10;79.80;;;;;;5045025;28;87333;-38
2022/12/22 10:49:54;;;;;;;;;;;0.10;79.60;;;;;;5044771;28;88101;-38
2022/12/22 10:52:19;;;;;;;;;;;0.10;79.70;;;;;;5045054;28;87256;-38
2022/12/22 10:54:45;;;;;;;;;;;0.10;79.80;;;;;;5048009;28;87374;-39
2022/12/22 10:57:15;;;;;;;;;;;0.10;79.60;;;;;;5045019;28;87176;-39
2022/12/22 10:59:49;;;;;;;;;;;0.10;79.60;;;;;;5045532;28;88877;-39
2022/12/22 11:02:17;;;;;;;;;;;0.10;79.90;;;;;;5044670;28;88162;-39
2022/12/22 11:04:43;;;;;;;;;;;0.10;80.00;;;;;;5044873;28;87134;-39
2022/12/22 11:07:08;;;;;;;;;;;0.10;80.10;;;;;;5044476;28;88087;-39
2022/12/22 11:09:34;;;;;;;;;;;0.10;80.10;;;;;;5044983;28;87884;-39
2022/12/22 11:12:04;;;;;;;;;;;0.10;80.10;;;;;;5045050;28;87046;-39
2022/12/22 11:14:48;;;;;;;;;;;0.10;79.80;;;;;;5044937;28;87385;-39
2022/12/22 11:17:30;;;;;;;;;;;0.10;79.90;;;;;;5047019;28;87910;-39
2022/12/22 11:19:55;;;;;;;;;;;0.20;80.00;;;;;;5044934;28;88238;-39
2022/12/22 11:22:30;;;;;;;;;;;0.20;79.80;;;;;;5044178;28;88512;-39
2022/12/22 11:25:05;;;;;;;;;;;0.10;79.90;;;;;;5045375;28;86786;-39
2022/12/22 11:27:37;;;;;;;;;;;0.20;80.00;;;;;;5044662;28;86883;-39
2022/12/22 11:30:11;;;;;;;;;;;0.20;79.90;;;;;;5044472;27;87825;-39
2022/12/22 11:32:56;;;;;;;;;;;0.20;79.80;;;;;;5043712;28;87705;-39
2022/12/22 11:35:41;;;;;;;;;;;0.20;79.90;;;;;;5044649;28;88292;-39
2022/12/22 11:38:10;;;;;;;;;;;0.30;79.90;;;;;;5043005;28;88002;-38
2022/12/22 11:40:35;;;;;;;;;;;0.20;79.80;;;;;;5047121;28;86881;-38
2022/12/22 11:43:01;;;;;;;;;;;0.20;80.10;;;;;;5043967;27;88438;-39
2022/12/22 11:45:47;;;;;;;;;;;0.10;80.70;;;;;;5044570;28;87578;-39
2022/12/22 11:48:21;;;;;;;;;;;0.00;81.30;;;;;;5026213;28;87463;-39
2022/12/22 11:50:48;;;;;;;;;;;0.00;81.70;;;;;;5044506;28;87479;-39
2022/12/22 11:53:32;;;;;;;;;;;0.00;81.90;;;;;;5042878;28;87162;-39
2022/12/22 11:56:01;;;;;;;;;;;-0.10;82.00;;;;;;5044532;28;87044;-39
2022/12/22 11:58:45;;;;;;;;;;;-0.10;81.90;;;;;;5043358;28;89383;-39
2022/12/22 12:01:29;;;;;;;;;;;0.00;82.20;;;;;;5047067;28;87086;-39
2022/12/22 12:03:55;;;;;;;;;;;-0.10;82.20;;;;;;5043949;28;88045;-39
2022/12/22 12:06:27;;;;;;;;;;;-0.10;82.20;;;;;;5043953;28;87138;-39
2022/12/22 12:09:11;;;;;;;;;;;0.00;82.40;;;;;;5044078;28;87389;-39
2022/12/22 12:11:45;;;;;;;;;;;0.00;82.40;;;;;;5043711;28;87112;-39
2022/12/22 12:14:17;;;;;;;;;;;-0.10;82.40;;;;;;5043889;28;86989;-39
2022/12/22 12:16:54;;;;;;;;;;;0.00;82.60;;;;;;5044354;28;87430;-39
2022/12/22 12:19:41;;;;;;;;;;;0.00;82.60;;;;;;5043232;28;89375;-39
2022/12/22 12:22:16;;;;;;;;;;;0.00;82.50;;;;;;5043794;28;87153;-39
2022/12/22 12:24:44;;;;;;;;;;;0.00;82.50;;;;;;5046009;28;87920;-39
2022/12/22 12:27:09;;;;;;;;;;;0.00;82.70;;;;;;5043940;27;87264;-39
2022/12/22 12:29:54;;;;;;;;;;;0.00;82.70;;;;;;5043960;28;87272;-39
2022/12/22 12:32:22;;;;;;;;;;;0.00;82.80;;;;;;5043260;28;88573;-39
2022/12/22 12:34:52;;;;;;;;;;;0.10;83.10;;;;;;5043598;28;87090;-39
2022/12/22 12:37:25;;;;;;;;;;;0.10;82.90;;;;;;5043608;28;87171;-39
2022/12/22 12:40:09;;;;;;;;;;;0.10;83.10;;;;;;5043294;28;88008;-39
2022/12/22 12:42:35;;;;;;;;;;;0.10;83.10;;;;;;5043507;28;86523;-39
2022/12/22 12:45:01;;;;;;;;;;;0.10;83.10;;;;;;5043515;28;87028;-39
2022/12/22 12:47:35;;;;;;;;;;;0.10;83.30;;;;;;5045778;28;89339;-39
2022/12/22 12:50:05;;;;;;;;;;;0.10;83.30;;;;;;5043099;28;88031;-39
2022/12/22 12:52:56;;;;;;;;;;;0.20;83.30;;;;;;5042937;28;89277;-39
2022/12/22 12:55:28;;;;;;;;;;;0.20;83.10;;;;;;5037948;28;87114;-39
2022/12/22 12:57:53;;;;;;;;;;;0.20;83.40;;;;;;5043319;28;87448;-39
2022/12/22 13:00:31;;;;;;;;;;;0.20;83.40;;;;;;5043051;28;87998;-39
2022/12/22 13:02:58;;;;;;;;;;;0.20;83.10;;;;;;5042910;27;87106;-39
2022/12/22 13:05:23;;;;;;;;;;;0.20;83.40;;;;;;5043079;28;87190;-39
2022/12/22 13:08:04;;;;;;;;;;;0.30;83.00;;;;;;5043292;28;87286;-39
2022/12/22 13:10:30;;;;;;;;;;;0.30;82.80;;;;;;5045911;28;87011;-39
2022/12/22 13:12:57;;;;;;;;;;;0.30;83.40;;;;;;5042559;28;88023;-39
2022/12/22 13:15:25;;;;;;;;;;;0.40;83.20;;;;;;5042475;28;88106;-39
2022/12/22 13:17:50;;;;;;;;;;;0.40;83.10;;;;;;5042823;28;87351;-39
2022/12/22 13:20:19;;;;;;;;;;;0.40;83.50;;;;;;5042566;28;88255;-39
2022/12/22 13:22:45;;;;;;;;;;;0.40;82.60;;;;;;5042749;28;87030;-39
2022/12/22 13:25:15;;;;;;;;;;;0.40;83.00;;;;;;5042870;28;87258;-39
2022/12/22 13:27:41;;;;;;;;;;;0.40;83.00;;;;;;5042428;28;88002;-39
2022/12/22 13:30:11;;;;;;;;;;;0.50;82.90;;;;;;5042975;28;87198;-39
2022/12/22 13:32:39;;;;;;;;;;;0.50;82.60;;;;;;5045668;28;88681;-39
2022/12/22 13:35:05;;;;;;;;;;;0.60;82.60;;;;;;5042618;28;87273;-39
2022/12/22 13:37:37;;;;;;;;;;;0.70;82.20;;;;;;5042401;28;89191;-39
2022/12/22 13:40:04;;;;;;;;;;;0.70;82.50;;;;;;5041839;28;89141;-39
2022/12/22 13:42:30;;;;;;;;;;;0.70;82.30;;;;;;5042092;28;87181;-39
2022/12/22 13:44:55;;;;;;;;;;;0.70;82.30;;;;;;5042631;28;87021;-39
2022/12/22 13:47:21;;;;;;;;;;;0.70;82.30;;;;;;5041993;28;88064;-39
2022/12/22 13:49:47;;;;;;;;;;;0.80;82.40;;;;;;5042373;28;87067;-39
2022/12/22 13:52:14;;;;;;;;;;;0.90;82.10;;;;;;5045113;28;87546;-39
2022/12/22 13:54:42;;;;;;;;;;;0.80;81.90;;;;;;5042213;28;87161;-39
2022/12/22 13:57:13;;;;;;;;;;;0.90;82.00;;;;;;5042858;28;87598;-39
2022/12/22 13:59:40;;;;;;;;;;;0.90;81.90;;;;;;5041852;28;88822;-39
2022/12/22 14:02:08;;;;;;;;;;;0.90;81.90;;;;;;5042150;28;87079;-39
2022/12/22 14:04:37;;;;;;;;;;;0.90;82.00;;;;;;5041592;28;87955;-39
2022/12/22 14:07:13;;;;;;;;;;;1.00;81.70;;;;;;5041733;28;87239;-39
2022/12/22 14:09:42;;;;;;;;;;;1.10;81.40;;;;;;5042493;28;87079;-39
2022/12/22 14:12:12;;;;;;;;;;;1.10;81.30;;;;;;5042356;28;87470;-39
2022/12/22 14:14:40;;;;;;;;;;;1.10;81.30;;;;;;5044589;27;88204;-39
2022/12/22 14:17:15;;;;;;;;;;;1.20;81.20;;;;;;5044816;28;87261;-39
2022/12/22 14:19:40;;;;;;;;;;;1.10;80.90;;;;;;5045573;28;88013;-39
2022/12/22 14:22:09;;;;;;;;;;;1.20;80.90;;;;;;5046359;28;86207;-39
2022/12/22 14:24:40;;;;;;;;;;;1.20;80.40;;;;;;5045653;28;86996;-39
2022/12/22 14:27:11;;;;;;;;;;;1.20;80.60;;;;;;5045398;28;87348;-39
2022/12/22 14:29:36;;;;;;;;;;;1.20;80.30;;;;;;5044609;28;87979;-39
2022/12/22 14:32:02;;;;;;;;;;;1.20;80.50;;;;;;5045553;28;88069;-39
2022/12/22 14:34:29;;;;;;;;;;;1.20;81.00;;;;;;5045321;28;87164;-40
2022/12/22 14:36:55;;;;;;;;;;;1.30;80.60;;;;;;5048421;28;87080;-39
2022/12/22 14:39:23;;;;;;;;;;;1.30;80.90;;;;;;5044843;28;87847;-39
2022/12/22 14:41:51;;;;;;;;;;;1.30;80.30;;;;;;5044845;28;88059;-39
2022/12/22 14:44:19;;;;;;;;;;;1.30;80.80;;;;;;5045192;28;87484;-39
2022/12/22 14:46:47;;;;;;;;;;;1.30;80.00;;;;;;5045682;28;87308;-39
2022/12/22 14:49:17;;;;;;;;;;;1.30;80.30;;;;;;5045309;27;87091;-39
2022/12/22 14:51:52;;;;;;;;;;;1.40;80.60;;;;;;5045322;28;86989;-39
2022/12/22 14:54:19;;;;;;;;;;;1.40;80.20;;;;;;5044427;28;89210;-39
2022/12/22 14:56:49;;;;;;;;;;;1.40;80.30;;;;;;5045419;28;87145;-39
2022/12/22 14:59:22;;;;;;;;;;;1.40;80.60;;;;;;5047515;28;88735;-39
2022/12/22 15:02:19;;;;;;;;;;;1.40;80.20;;;;;;5044905;28;87250;-39
2022/12/22 15:04:44;;;;;;;;;;;1.40;80.40;;;;;;5044876;28;89047;-39
2022/12/22 15:07:17;;;;;;;;;;;1.40;80.40;;;;;;5044777;28;87837;-39
2022/12/22 15:09:43;;;;;;;;;;;1.50;80.30;;;;;;5045041;28;87092;-40
2022/12/22 15:12:17;;;;;;;;;;;1.50;80.20;;;;;;5045377;28;87387;-39
2022/12/22 15:14:46;;;;;;;;;;;1.50;80.20;;;;;;5044404;28;87845;-39
2022/12/22 15:17:22;;;;;;;;;;;1.40;80.10;;;;;;5044326;28;87050;-39
2022/12/22 15:19:48;;;;;;;;;;;1.40;80.50;;;;;;5044400;28;88046;-39
2022/12/22 15:22:13;;;;;;;;;;;1.50;80.30;;;;;;5047398;28;88198;-39
2022/12/22 15:24:39;;;;;;;;;;;1.50;80.10;;;;;;5044719;28;87420;-39
2022/12/22 15:27:04;;;;;;;;;;;1.50;80.40;;;;;;5044089;27;88084;-39
2022/12/22 15:29:30;;;;;;;;;;;1.50;80.00;;;;;;5044817;28;87164;-39
2022/12/22 15:31:55;;;;;;;;;;;1.50;80.20;;;;;;5044703;28;87410;-39
2022/12/22 15:34:22;;;;;;;;;;;1.50;80.60;;;;;;5044412;28;87522;-40
2022/12/22 15:36:48;;;;;;;;;;;1.50;80.50;;;;;;5045052;28;86272;-40
2022/12/22 15:39:15;;;;;;;;;;;1.50;80.30;;;;;;5044645;28;86850;-39
2022/12/22 15:41:41;;;;;;;;;;;1.50;80.30;;;;;;5043426;28;89472;-39
2022/12/22 15:44:07;;;;;;;;;;;1.50;79.90;;;;;;5046559;28;88054;-39
2022/12/22 15:46:32;;;;;;;;;;;1.60;80.50;;;;;;5044178;28;88268;-40
2022/12/22 15:48:58;;;;;;;;;;;1.60;80.50;;;;;;5044500;28;87111;-39
2022/12/22 15:51:25;;;;;;;;;;;1.60;79.80;;;;;;5044305;28;87412;-39
2022/12/22 15:53:51;;;;;;;;;;;1.60;79.70;;;;;;5044055;27;88072;-39
2022/12/22 15:56:18;;;;;;;;;;;1.60;80.10;;;;;;5044385;28;87065;-40
2022/12/22 15:58:43;;;;;;;;;;;1.60;80.00;;;;;;5044244;28;88682;-40
2022/12/22 16:01:10;;;;;;;;;;;1.60;79.80;;;;;;5044439;28;87346;-40
2022/12/22 16:03:36;;;;;;;;;;;1.60;80.00;;;;;;5046824;28;87253;-39
2022/12/22 16:06:02;;;;;;;;;;;1.60;80.20;;;;;;5043816;28;87268;-39
2022/12/22 16:08:32;;;;;;;;;;;1.60;80.00;;;;;;5043321;28;88174;-39
2022/12/22 16:10:58;;;;;;;;;;;1.60;79.80;;;;;;5044042;28;88333;-40
2022/12/22 16:13:25;;;;;;;;;;;1.60;79.60;;;;;;5043659;28;87292;-39
2022/12/22 16:15:51;;;;;;;;;;;1.60;79.70;;;;;;5043860;28;87043;-40
2022/12/22 16:18:16;;;;;;;;;;;1.60;79.60;;;;;;5043480;28;87332;-39
2022/12/22 16:20:42;;;;;;;;;;;1.60;79.60;;;;;;5043657;28;88209;-39
2022/12/22 16:23:16;;;;;;;;;;;1.60;79.50;;;;;;5043865;28;87082;-40
2022/12/22 16:25:43;;;;;;;;;;;1.70;79.70;;;;;;5047014;28;87277;-39
2022/12/22 16:28:11;;;;;;;;;;;1.70;79.60;;;;;;5043777;28;87189;-39
2022/12/22 16:30:37;;;;;;;;;;;1.70;79.60;;;;;;5043651;28;87390;-39
2022/12/22 16:33:03;;;;;;;;;;;1.70;79.60;;;;;;5042630;28;89170;-39
2022/12/22 16:35:29;;;;;;;;;;;1.70;79.60;;;;;;5043594;28;87068;-39
2022/12/22 16:37:56;;;;;;;;;;;1.70;79.60;;;;;;5043358;27;87415;-39
2022/12/22 16:40:21;;;;;;;;;;;1.70;79.80;;;;;;5043091;28;88028;-39
2022/12/22 16:42:56;;;;;;;;;;;1.70;79.30;;;;;;5043229;28;87085;-40
2022/12/22 16:45:23;;;;;;;;;;;1.70;79.60;;;;;;5043780;28;87379;-39
2022/12/22 16:47:50;;;;;;;;;;;1.70;79.70;;;;;;5045561;28;90822;-39
2022/12/22 16:50:18;;;;;;;;;;;1.70;79.40;;;;;;5043895;28;87314;-39
2022/12/22 16:52:43;;;;;;;;;;;1.70;79.40;;;;;;5042777;28;89450;-39
2022/12/22 16:55:16;;;;;;;;;;;1.80;79.50;;;;;;5043517;28;87119;-39
2022/12/22 16:57:42;;;;;;;;;;;1.80;79.20;;;;;;5042723;28;88139;-39
2022/12/22 17:00:12;;;;;;;;;;;1.80;79.50;;;;;;5042771;27;88651;-39
2022/12/22 17:02:37;;;;;;;;;;;1.80;79.20;;;;;;5043027;28;87189;-39
2022/12/22 17:05:03;;;;;;;;;;;1.80;79.50;;;;;;5043540;28;87093;-39
2022/12/22 17:07:31;;;;;;;;;;;1.80;79.40;;;;;;5042747;28;86992;-39
2022/12/22 17:10:00;;;;;;;;;;;1.80;79.60;;;;;;5046095;28;87112;-39
2022/12/22 17:12:32;;;;;;;;;;;1.80;79.30;;;;;;5042607;28;87975;-39
2022/12/22 17:14:58;;;;;;;;;;;1.80;79.30;;;;;;5043906;28;86318;-39
2022/12/22 17:17:23;;;;;;;;;;;1.80;79.20;;;;;;5043017;27;87351;-39
2022/12/22 17:19:49;;;;;;;;;;;1.80;79.40;;;;;;5042478;28;89204;-39
2022/12/22 17:22:23;;;;;;;;;;;1.80;79.00;;;;;;5042223;28;88117;-39
2022/12/22 17:24:50;;;;;;;;;;;1.90;79.20;;;;;;5024508;28;89812;-39
2022/12/22 17:27:17;;;;;;;;;;;1.80;79.10;;;;;;5042094;28;87327;-39
2022/12/22 17:29:43;;;;;;;;;;;1.90;79.20;;;;;;5042752;28;86989;-39
2022/12/22 17:32:12;;;;;;;;;;;1.90;79.00;;;;;;5045442;28;87529;-39
2022/12/22 17:34:37;;;;;;;;;;;1.90;79.00;;;;;;5042591;28;87118;-39
2022/12/22 17:37:05;;;;;;;;;;;1.90;79.00;;;;;;5042803;28;87016;-39
2022/12/22 17:39:32;;;;;;;;;;;1.90;79.00;;;;;;5042765;28;87333;-39
2022/12/22 17:41:58;;;;;;;;;;;1.90;79.20;;;;;;5042180;28;87184;-39
2022/12/22 17:44:24;;;;;;;;;;;1.90;78.90;;;;;;5042732;28;87432;-39
2022/12/22 17:46:49;;;;;;;;;;;1.90;79.00;;;;;;5041574;28;89171;-39
2022/12/22 17:49:18;;;;;;;;;;;1.90;78.90;;;;;;5042650;27;87056;-39
2022/12/22 17:51:44;;;;;;;;;;;1.90;79.00;;;;;;5046020;28;88811;-39
2022/12/22 17:54:36;;;;;;;;;;;1.90;78.90;;;;;;5048568;28;87510;-39
2022/12/22 17:57:02;;;;;;;;;;;1.90;78.70;;;;;;5040885;28;87486;-39
2022/12/22 17:59:28;;;;;;;;;;;1.90;78.80;;;;;;5046036;28;87974;-39
2022/12/22 18:01:53;;;;;;;;;;;1.90;78.80;;;;;;5046127;28;87124;-39
2022/12/22 18:04:19;;;;;;;;;;;1.90;78.80;;;;;;5046532;28;87370;-39
2022/12/22 18:06:45;;;;;;;;;;;1.90;78.90;;;;;;5045725;28;88168;-39
2022/12/22 18:09:18;;;;;;;;;;;1.90;78.70;;;;;;5045625;27;87188;-39